METAR Data
IDs: Format: Raw Decoded Include TAF

Data at: 1550 UTC 21 Sep 2018

K04V 211536Z AUTO 00000KT 10SM CLR 12/M02 A3045 RMK AO2 PWINO
K04V 211512Z AUTO 00000KT 10SM CLR 11/M02 A3045 RMK AO2 PWINO
K04V 211454Z AUTO 00000KT 10SM CLR 11/M01 A3045 RMK AO2 PWINO
K04V 211436Z AUTO 00000KT 10SM CLR 09/M02 A3045 RMK AO2 PWINO
K04V 211412Z AUTO 00000KT 10SM CLR 08/M02 A3044 RMK AO2 PWINO
K04V 211354Z AUTO 00000KT 10SM CLR 07/M02 A3043 RMK AO2 PWINO
K04V 211336Z AUTO 00000KT 10SM CLR 06/M02 A3042 RMK AO2 PWINO
K04V 211312Z AUTO 00000KT 10SM CLR 05/M02 A3041 RMK AO2 PWINO
K04V 211254Z AUTO 00000KT 10SM CLR 05/M02 A3040 RMK AO2 PWINO
K04V 211235Z AUTO 00000KT 10SM CLR 05/M02 A3040 RMK AO2 PWINO
K04V 211211Z AUTO 00000KT 10SM CLR 06/M02 A3038 RMK AO2 PWINO
K04V 211155Z AUTO 00000KT 10SM CLR 06/M02 A3038 RMK AO2 PWINO
K04V 211131Z AUTO 00000KT 10SM CLR 06/M02 A3036 RMK AO2 PWINO
K04V 211112Z AUTO 00000KT 10SM CLR 07/M02 A3036 RMK AO2 PWINO
K04V 211054Z AUTO 00000KT 10SM CLR 07/M02 A3035 RMK AO2 PWINO
K04V 211036Z AUTO 00000KT 10SM CLR 07/M02 A3034 RMK AO2 PWINO
K04V 211012Z AUTO 00000KT 10SM CLR 07/M02 A3033 RMK AO2 PWINO
K04V 210954Z AUTO 00000KT 10SM CLR 08/M02 A3032 RMK AO2 PWINO
K04V 210936Z AUTO 00000KT 10SM CLR 08/M02 A3032 RMK AO2 PWINO
K04V 210912Z AUTO 00000KT 10SM CLR 08/M02 A3032 RMK AO2 PWINO
K04V 210853Z AUTO 00000KT 10SM CLR 08/M01 A3032 RMK AO2 PWINO
K04V 210835Z AUTO 00000KT 10SM CLR 08/M01 A3032 RMK AO2 PWINO
K04V 210811Z AUTO 32008KT 10SM CLR 08/M01 A3031 RMK AO2 PWINO
K04V 210754Z AUTO 00000KT 10SM CLR 08/M01 A3031 RMK AO2 PWINO
K04V 210736Z AUTO 00000KT 10SM CLR 08/M01 A3031 RMK AO2 PWINO
K04V 210712Z AUTO 00000KT 10SM CLR 08/M01 A3031 RMK AO2 PWINO
K04V 210653Z AUTO 00000KT 10SM CLR 07/M01 A3031 RMK AO2 PWINO
K04V 210635Z AUTO 00000KT 10SM CLR 10/M02 A3031 RMK AO2 PWINO
K04V 210612Z AUTO 00000KT 10SM CLR 10/M01 A3030 RMK AO2 PWINO
K04V 210554Z AUTO 00000KT 10SM CLR 11/M01 A3029 RMK AO2 PWINO
K04V 210536Z AUTO 00000KT 10SM CLR 12/M01 A3029 RMK AO2 PWINO
K04V 210512Z AUTO 00000KT 10SM CLR 12/M02 A3029 RMK AO2 PWINO
K04V 210454Z AUTO 00000KT 10SM CLR 12/M01 A3029 RMK AO2 PWINO
K04V 210436Z AUTO 00000KT 10SM CLR 11/M01 A3028 RMK AO2 PWINO
K04V 210412Z AUTO 00000KT 10SM CLR 12/M01 A3027 RMK AO2 PWINO
K04V 210354Z AUTO 00000KT 10SM CLR 12/M01 A3027 RMK AO2 PWINO
K04V 210336Z AUTO 00000KT 10SM CLR 12/M01 A3026 RMK AO2 PWINO
K04V 210312Z AUTO 00000KT 10SM CLR 13/M01 A3024 RMK AO2 PWINO
K04V 210255Z AUTO 00000KT 10SM CLR 12/00 A3023 RMK AO2 PWINO
K04V 210231Z AUTO 00000KT 10SM CLR 15/M02 A3022 RMK AO2 PWINO
K04V 210213Z AUTO 00000KT 10SM CLR 15/M02 A3021 RMK AO2 PWINO
K04V 210154Z AUTO 00000KT 10SM CLR 15/M02 A3019 RMK AO2 PWINO
K04V 210136Z AUTO 00000KT 10SM CLR 16/M02 A3019 RMK AO2 PWINO
K04V 210112Z AUTO 00000KT 10SM CLR 17/M02 A3017 RMK AO2 PWINO
K04V 210056Z AUTO 00000KT 10SM CLR 18/M03 A3016 RMK AO2 PWINO
K04V 210032Z AUTO 00000KT 10SM CLR 20/M03 A3015 RMK AO2 PWINO
K04V 210014Z AUTO 00000KT 10SM CLR 20/M03 A3014 RMK AO2 PWINO
K04V 202354Z AUTO 00000KT 10SM CLR 21/M05 A3013 RMK AO2 PWINO
K04V 202336Z AUTO 31004G16KT 10SM CLR 21/M05 A3013 RMK AO2 PWINO
K04V 202312Z AUTO 31012G20KT 10SM CLR 21/M06 A3012 RMK AO2 PWINO
K04V 202255Z AUTO 32005G18KT 10SM CLR 22/M06 A3012 RMK AO2 PWINO
K04V 202236Z AUTO 32005G21KT 10SM CLR 22/M06 A3012 RMK AO2 PWINO
K04V 202212Z AUTO 31012G18KT 10SM CLR 22/M06 A3012 RMK AO2 PWINO
K04V 202154Z AUTO 33007G21KT 10SM CLR 22/M06 A3012 RMK AO2 PWINO
K04V 202136Z AUTO 34007G16KT 10SM CLR 22/M05 A3012 RMK AO2 PWINO
K04V 202112Z AUTO 00000KT 10SM CLR 22/M02 A3011 RMK AO2 PWINO
K04V 202054Z AUTO 00000KT 10SM CLR 21/M02 A3011 RMK AO2 PWINO
K04V 202036Z AUTO 00000KT 10SM CLR 21/M02 A3012 RMK AO2 PWINO
K04V 202012Z AUTO 00000KT 10SM CLR 21/M01 A3012 RMK AO2 PWINO
K04V 201954Z AUTO 32004KT 10SM CLR 20/M02 A3013 RMK AO2 P0001 PWINO
K04V 201936Z AUTO 00000KT 10SM SCT085 20/02 A3013 RMK AO2 PWINO
K04V 201912Z AUTO 00000KT 10SM CLR 17/07 A3014 RMK AO2 PWINO
K04V 201854Z AUTO 00000KT 10SM CLR 17/08 A3014 RMK AO2 PWINO
K04V 201836Z AUTO 00000KT 10SM CLR 16/07 A3015 RMK AO2 PWINO
K04V 201812Z AUTO 00000KT 10SM CLR 15/08 A3016 RMK AO2 PWINO
K04V 201755Z AUTO 00000KT 10SM CLR 15/08 A3017 RMK AO2 PWINO
K04V 201736Z AUTO 00000KT 10SM SCT021 14/08 A3017 RMK AO2 PWINO
K04V 201712Z AUTO 00000KT 10SM SCT021 SCT047 14/08 A3018 RMK AO2 PWINO
K04V 201654Z AUTO 00000KT 10SM SCT047 13/07 A3019 RMK AO2 PWINO
K04V 201636Z AUTO 00000KT 10SM SCT047 13/07 A3019 RMK AO2 PWINO
K04V 201612Z AUTO 00000KT 10SM CLR 13/07 A3019 RMK AO2 PWINO
K04V 201554Z AUTO 00000KT 10SM CLR 12/07 A3019 RMK AO2 PWINO
K04V 201536Z AUTO 00000KT 10SM CLR 11/07 A3018 RMK AO2 PWINO
K04V 201512Z AUTO 00000KT 10SM CLR 11/08 A3017 RMK AO2 PWINO
K04V 201454Z AUTO 00000KT 10SM CLR 10/08 A3017 RMK AO2 PWINO
K04V 201436Z AUTO 00000KT 10SM CLR 10/08 A3017 RMK AO2 PWINO
K04V 201412Z AUTO 00000KT 10SM CLR 09/07 A3017 RMK AO2 PWINO
K04V 201354Z AUTO 00000KT 10SM SCT021 SCT060 SCT120 09/08 A3017 RMK AO2 PWINO
K04V 201336Z AUTO 00000KT 10SM BKN023 BKN060 BKN120 09/08 A3016 RMK AO2 PWINO
K04V 201312Z AUTO 00000KT 10SM SCT025 OVC110 08/08 A3015 RMK AO2 PWINO
K04V 201254Z AUTO 00000KT 10SM SCT021 OVC100 08/08 A3015 RMK AO2 PWINO
K04V 201236Z AUTO 00000KT 10SM SCT016 BKN021 OVC090 08/08 A3015 RMK AO2 PWINO
K04V 201212Z AUTO 00000KT 10SM BKN016 BKN055 OVC080 08/08 A3015 RMK AO2 PWINO
K04V 201153Z AUTO 00000KT 10SM SCT014 BKN055 OVC080 08/08 A3013 RMK AO2 PWINO
K04V 201135Z AUTO 00000KT 10SM BKN065 OVC080 08/08 A3015 RMK AO2 PWINO
K04V 201111Z AUTO 00000KT 10SM OVC055 09/09 A3015 RMK AO2 PWINO
K04V 201054Z AUTO 00000KT 7SM BKN055 OVC065 09/08 A3014 RMK AO2 PWINO
K04V 201036Z AUTO 00000KT 5SM SCT049 OVC065 09/08 A3014 RMK AO2 PWINO
K04V 201012Z AUTO 00000KT 5SM SCT045 SCT055 OVC065 09/07 A3015 RMK AO2 PWINO
K04V 200954Z AUTO 00000KT 5SM OVC065 09/07 A3015 RMK AO2 PWINO
K04V 200936Z AUTO 00000KT 5SM OVC055 09/07 A3014 RMK AO2 PWINO
K04V 200912Z AUTO 00000KT 5SM OVC055 09/07 A3015 RMK AO2 PWINO
K04V 200854Z AUTO 00000KT 4SM OVC055 09/08 A3016 RMK AO2 PWINO
K04V 200836Z AUTO 00000KT 4SM OVC055 10/08 A3017 RMK AO2 PWINO
K04V 200812Z AUTO 00000KT 3SM SCT040 SCT048 OVC055 10/09 A3017 RMK AO2 PWINO
K04V 200754Z AUTO 00000KT 4SM OVC055 10/09 A3017 RMK AO2 PWINO
K04V 200736Z AUTO 00000KT 4SM OVC055 10/09 A3017 RMK AO2 PWINO
K04V 200712Z AUTO 00000KT 5SM OVC055 10/09 A3017 RMK AO2 PWINO
K04V 200654Z AUTO 00000KT 4SM OVC055 10/10 A3017 RMK AO2 PWINO
K04V 200636Z AUTO 00000KT 5SM BKN055 OVC070 11/09 A3016 RMK AO2 PWINO
K04V 200612Z AUTO 32003G24KT 10SM SCT055 OVC065 12/08 A3016 RMK AO2 PWINO
K04V 200554Z AUTO 00000KT 10SM SCT065 OVC085 12/07 A3015 RMK AO2 PWINO
K04V 200536Z AUTO 00000KT 10SM SCT065 OVC085 13/07 A3014 RMK AO2 PWINO
K04V 200512Z AUTO 00000KT 10SM BKN085 OVC110 14/06 A3013 RMK AO2 PWINO
K04V 200453Z AUTO 00000KT 10SM SCT085 BKN110 15/06 A3012 RMK AO2 PWINO
K04V 200435Z AUTO 00000KT 10SM SCT110 15/06 A3012 RMK AO2 PWINO
K04V 200411Z AUTO 00000KT 10SM BKN090 BKN110 15/06 A3012 RMK AO2 PWINO
K04V 200354Z AUTO 00000KT 10SM OVC090 15/06 A3012 RMK AO2 PWINO